createdAt,value
2016-09-28T00:00:30.902Z,1023.59
2016-09-28T00:01:30.922Z,1023.58
2016-09-28T00:02:30.947Z,1023.54
2016-09-28T00:03:30.976Z,1023.53
2016-09-28T00:04:30.982Z,1023.49
2016-09-28T00:05:31.003Z,1023.48
2016-09-28T00:06:31.026Z,1023.51
2016-09-28T00:07:31.043Z,1023.49
2016-09-28T00:08:31.064Z,1023.5
2016-09-28T00:09:31.093Z,1023.51
2016-09-28T00:10:31.109Z,1023.46
2016-09-28T00:11:31.129Z,1023.45
2016-09-28T00:12:31.149Z,1023.4
2016-09-28T00:13:31.174Z,1023.38
2016-09-28T00:14:31.184Z,1023.35
2016-09-28T00:15:31.207Z,1023.35
2016-09-28T00:16:31.230Z,1023.35
2016-09-28T00:17:31.251Z,1023.34
2016-09-28T00:18:31.271Z,1023.32
2016-09-28T00:19:31.297Z,1023.3
2016-09-28T00:20:31.319Z,1023.28
2016-09-28T00:21:31.333Z,1023.24
2016-09-28T00:22:31.355Z,1023.22
2016-09-28T00:23:31.374Z,1023.23
2016-09-28T00:24:31.390Z,1023.27
2016-09-28T00:25:31.412Z,1023.25
2016-09-28T00:26:31.788Z,1023.22
2016-09-28T00:27:31.453Z,1023.23
2016-09-28T00:28:31.472Z,1023.25
2016-09-28T00:29:31.496Z,1023.24
2016-09-28T00:30:31.522Z,1023.23
2016-09-28T00:31:31.540Z,1023.23
2016-09-28T00:32:31.565Z,1023.18
2016-09-28T00:33:31.585Z,1023.2
2016-09-28T00:34:31.600Z,1023.19
2016-09-28T00:35:31.617Z,1023.21
2016-09-28T00:36:31.644Z,1023.18
2016-09-28T00:37:31.664Z,1023.18
2016-09-28T00:38:31.687Z,1023.2
2016-09-28T00:39:31.706Z,1023.19
2016-09-28T00:40:31.733Z,1023.23
2016-09-28T00:41:31.747Z,1023.21
2016-09-28T00:42:31.774Z,1023.18
2016-09-28T00:43:31.784Z,1023.17
2016-09-28T00:44:31.810Z,1023.15
2016-09-28T00:45:31.829Z,1023.18
2016-09-28T00:46:31.905Z,1023.13
2016-09-28T00:47:31.869Z,1023.07
2016-09-28T00:48:32.016Z,1023.06
2016-09-28T00:49:31.912Z,1023.06
2016-09-28T00:50:31.937Z,1023.05
2016-09-28T00:51:31.958Z,1023.05
2016-09-28T00:52:31.973Z,1023.02
2016-09-28T00:53:31.997Z,1023
2016-09-28T00:54:32.018Z,1022.96
2016-09-28T00:55:32.043Z,1022.95
2016-09-28T00:56:32.121Z,1022.95
2016-09-28T00:57:32.077Z,1022.96
2016-09-28T00:58:32.105Z,1022.96
2016-09-28T00:59:32.138Z,1022.92
2016-09-28T01:00:32.142Z,1022.89
2016-09-28T01:01:32.262Z,1022.92
2016-09-28T01:02:32.191Z,1022.93
2016-09-28T01:03:32.211Z,1022.95
2016-09-28T01:04:32.232Z,1022.95
2016-09-28T01:05:32.293Z,1022.91
2016-09-28T01:06:32.274Z,1022.89
2016-09-28T01:07:32.292Z,1022.89
2016-09-28T01:08:32.313Z,1022.89
2016-09-28T01:09:32.333Z,1022.89
2016-09-28T01:10:32.355Z,1022.97
2016-09-28T01:11:32.430Z,1022.95
2016-09-28T01:12:32.520Z,1022.96
2016-09-28T01:13:32.422Z,1022.91
2016-09-28T01:14:32.490Z,1022.91
2016-09-28T01:15:32.458Z,1022.94
2016-09-28T01:16:32.579Z,1022.91
2016-09-28T01:17:32.500Z,1022.9
2016-09-28T01:18:32.524Z,1022.92
2016-09-28T01:19:32.544Z,1022.92
2016-09-28T01:20:32.563Z,1022.97
2016-09-28T01:21:32.589Z,1022.95
2016-09-28T01:22:32.610Z,1022.98
2016-09-28T01:23:32.628Z,1023
2016-09-28T01:24:32.652Z,1022.99
2016-09-28T01:25:32.671Z,1023.01
2016-09-28T01:26:32.695Z,1023.03
2016-09-28T01:27:32.717Z,1023.01
2016-09-28T01:28:32.740Z,1023.06
2016-09-28T01:29:32.762Z,1023.08
2016-09-28T01:30:32.781Z,1023.03
2016-09-28T01:31:32.809Z,1023
2016-09-28T01:32:32.825Z,1022.99
2016-09-28T01:33:32.843Z,1022.99
2016-09-28T01:34:32.869Z,1022.98
2016-09-28T01:35:32.889Z,1022.93
2016-09-28T01:36:32.907Z,1022.92
2016-09-28T01:37:32.928Z,1022.86
2016-09-28T01:38:32.958Z,1022.89
2016-09-28T01:39:32.977Z,1022.84
2016-09-28T01:40:32.997Z,1022.79
2016-09-28T01:41:33.018Z,1022.8
2016-09-28T01:42:33.039Z,1022.79
2016-09-28T01:43:33.063Z,1022.73
2016-09-28T01:44:33.087Z,1022.74
2016-09-28T01:45:33.105Z,1022.67
2016-09-28T01:46:33.180Z,1022.63
2016-09-28T01:47:33.147Z,1022.6
2016-09-28T01:48:33.171Z,1022.55
2016-09-28T01:49:33.199Z,1022.54
2016-09-28T01:50:33.218Z,1022.55
2016-09-28T01:51:33.291Z,1022.55
2016-09-28T01:52:33.259Z,1022.53
2016-09-28T01:53:33.277Z,1022.5
2016-09-28T01:54:33.307Z,1022.44
2016-09-28T01:55:33.327Z,1022.47
2016-09-28T01:56:33.338Z,1022.45
2016-09-28T01:57:33.365Z,1022.42
2016-09-28T01:58:33.388Z,1022.41
2016-09-28T01:59:33.411Z,1022.41
2016-09-28T02:00:33.444Z,1022.43
2016-09-28T02:01:33.504Z,1022.38
2016-09-28T02:02:33.474Z,1022.32
2016-09-28T02:03:33.496Z,1022.34
2016-09-28T02:04:33.519Z,1022.33
2016-09-28T02:05:33.537Z,1022.32
2016-09-28T02:06:33.573Z,1022.27
2016-09-28T02:07:33.592Z,1022.27
2016-09-28T02:08:33.606Z,1022.2
2016-09-28T02:09:33.628Z,1022.18
2016-09-28T02:10:33.657Z,1022.16
2016-09-28T02:11:33.727Z,1022.16
2016-09-28T02:12:33.699Z,1022.16
2016-09-28T02:13:33.717Z,1022.17
2016-09-28T02:14:33.737Z,1022.18
2016-09-28T02:15:33.799Z,1022.16
2016-09-28T02:16:33.837Z,1022.14
2016-09-28T02:17:33.807Z,1022.21
2016-09-28T02:18:33.836Z,1022.26
2016-09-28T02:19:33.851Z,1022.23
2016-09-28T02:20:33.873Z,1022.22
2016-09-28T02:21:33.896Z,1022.2
2016-09-28T02:22:33.918Z,1022.22
2016-09-28T02:23:33.938Z,1022.18
2016-09-28T02:24:33.959Z,1022.17
2016-09-28T02:25:33.987Z,1022.09
2016-09-28T02:26:34.156Z,1022.1
2016-09-28T02:27:34.029Z,1022.04
2016-09-28T02:28:34.053Z,1022.03
2016-09-28T02:29:34.075Z,1022.01
2016-09-28T02:30:34.097Z,1021.96
2016-09-28T02:31:34.167Z,1021.98
2016-09-28T02:32:34.138Z,1021.95
2016-09-28T02:33:34.165Z,1021.83
2016-09-28T02:34:34.189Z,1021.79
2016-09-28T02:35:34.206Z,1021.73
2016-09-28T02:36:34.276Z,1021.67
2016-09-28T02:37:34.346Z,1021.69
2016-09-28T02:38:34.273Z,1021.69
2016-09-28T02:39:34.298Z,1021.64
2016-09-28T02:40:34.316Z,1021.62
2016-09-28T02:41:34.387Z,1021.64
2016-09-28T02:42:34.359Z,1021.61
2016-09-28T02:43:34.387Z,1021.61
2016-09-28T02:44:34.409Z,1021.59
2016-09-28T02:45:34.428Z,1021.54
2016-09-28T02:46:34.456Z,1021.48
2016-09-28T02:47:34.469Z,1021.47
2016-09-28T02:48:34.561Z,1021.42
2016-09-28T02:49:34.517Z,1021.42
2016-09-28T02:50:34.637Z,1021.4
2016-09-28T02:51:34.613Z,1021.33
2016-09-28T02:52:34.588Z,1021.33
2016-09-28T02:53:34.609Z,1021.35
2016-09-28T02:54:34.629Z,1021.38
2016-09-28T02:55:34.652Z,1021.35
2016-09-28T02:56:34.781Z,1021.34
2016-09-28T02:57:34.699Z,1021.3
2016-09-28T02:58:34.716Z,1021.29
2016-09-28T02:59:34.738Z,1021.29
2016-09-28T03:00:34.761Z,1021.28
2016-09-28T03:01:34.982Z,1021.32
2016-09-28T03:02:35.013Z,1021.33
2016-09-28T03:03:35.033Z,1021.33
2016-09-28T03:04:34.848Z,1021.32
2016-09-28T03:05:35.071Z,1021.32
2016-09-28T03:06:35.194Z,1021.31
2016-09-28T03:07:35.073Z,1021.31
2016-09-28T03:08:35.085Z,1021.28
2016-09-28T03:09:35.060Z,1021.29
2016-09-28T03:10:35.077Z,1021.29
2016-09-28T03:11:35.063Z,1021.3
2016-09-28T03:12:35.074Z,1021.36
2016-09-28T03:13:35.099Z,1021.33
2016-09-28T03:14:35.069Z,1021.39
2016-09-28T03:15:35.093Z,1021.37
2016-09-28T03:16:35.110Z,1021.29
2016-09-28T03:17:35.133Z,1021.26
2016-09-28T03:18:35.157Z,1021.28
2016-09-28T03:19:35.180Z,1021.27
2016-09-28T03:20:35.198Z,1021.24
2016-09-28T03:21:35.231Z,1021.22
2016-09-28T03:22:35.247Z,1021.22
2016-09-28T03:23:35.268Z,1021.23
2016-09-28T03:24:35.293Z,1021.22
2016-09-28T03:25:35.312Z,1021.28
2016-09-28T03:26:35.344Z,1021.34
2016-09-28T03:27:35.351Z,1021.36
2016-09-28T03:28:35.377Z,1021.37
2016-09-28T03:29:35.397Z,1021.42
2016-09-28T03:30:35.420Z,1021.42
2016-09-28T03:31:35.438Z,1021.43
2016-09-28T03:32:35.469Z,1021.43
2016-09-28T03:33:35.489Z,1021.42
2016-09-28T03:34:35.503Z,1021.52
2016-09-28T03:35:35.528Z,1021.48
2016-09-28T03:36:35.550Z,1021.48
2016-09-28T03:37:35.576Z,1021.44
2016-09-28T03:38:35.592Z,1021.42
2016-09-28T03:39:35.623Z,1021.47
2016-09-28T03:40:35.640Z,1021.45
2016-09-28T03:41:35.661Z,1021.48
2016-09-28T03:42:35.686Z,1021.46
2016-09-28T03:43:35.715Z,1021.49
2016-09-28T03:44:35.731Z,1021.48
2016-09-28T03:45:35.750Z,1021.47
2016-09-28T03:46:35.771Z,1021.45
2016-09-28T03:47:35.797Z,1021.4
2016-09-28T03:48:35.824Z,1021.42
2016-09-28T03:49:35.891Z,1021.52
2016-09-28T03:50:35.862Z,1021.55
2016-09-28T03:51:35.885Z,1021.64
2016-09-28T03:52:35.908Z,1021.72
2016-09-28T03:53:35.929Z,1021.8
2016-09-28T03:54:35.948Z,1021.81
2016-09-28T03:55:35.977Z,1021.83
2016-09-28T03:56:36.000Z,1021.79
2016-09-28T03:57:36.011Z,1021.84
2016-09-28T03:58:36.084Z,1021.8
2016-09-28T03:59:36.062Z,1021.76
2016-09-28T04:00:36.144Z,1021.74
2016-09-28T04:01:36.110Z,1021.73
2016-09-28T04:02:36.181Z,1021.69
2016-09-28T04:03:36.153Z,1021.72
2016-09-28T04:04:36.182Z,1021.68
2016-09-28T04:05:36.201Z,1021.68
2016-09-28T04:06:36.216Z,1021.66
2016-09-28T04:07:36.240Z,1021.63
2016-09-28T04:08:36.257Z,1021.61
2016-09-28T04:09:36.291Z,1021.6
2016-09-28T04:10:36.304Z,1021.53
2016-09-28T04:11:36.334Z,1021.51
2016-09-28T04:12:36.348Z,1021.45
2016-09-28T04:13:36.388Z,1021.43
2016-09-28T04:14:36.392Z,1021.45
2016-09-28T04:15:36.421Z,1021.46
2016-09-28T04:16:36.448Z,1021.45
2016-09-28T04:17:36.463Z,1021.51
2016-09-28T04:18:36.482Z,1021.44
2016-09-28T04:19:36.509Z,1021.34
2016-09-28T04:20:36.530Z,1021.38
2016-09-28T04:21:36.559Z,1021.34
2016-09-28T04:22:36.581Z,1021.4
2016-09-28T04:23:36.604Z,1021.4
2016-09-28T04:24:36.622Z,1021.39
2016-09-28T04:25:36.647Z,1021.41
2016-09-28T04:26:36.670Z,1021.43
2016-09-28T04:27:36.688Z,1021.42
2016-09-28T04:28:36.710Z,1021.36
2016-09-28T04:29:36.728Z,1021.42
2016-09-28T04:30:36.750Z,1021.39
2016-09-28T04:31:36.781Z,1021.32
2016-09-28T04:32:36.807Z,1021.36
2016-09-28T04:33:36.827Z,1021.27
2016-09-28T04:34:36.847Z,1021.27
2016-09-28T04:35:36.869Z,1021.22
2016-09-28T04:36:36.889Z,1021.22
2016-09-28T04:37:36.912Z,1021.25
2016-09-28T04:38:36.933Z,1021.26
2016-09-28T04:39:36.960Z,1021.27
2016-09-28T04:40:36.982Z,1021.26
2016-09-28T04:41:37.002Z,1021.22
2016-09-28T04:42:37.028Z,1021.23
2016-09-28T04:43:37.049Z,1021.23
2016-09-28T04:44:37.066Z,1021.22
2016-09-28T04:45:37.091Z,1021.26
2016-09-28T04:46:37.119Z,1021.22
2016-09-28T04:47:37.139Z,1021.2
2016-09-28T04:48:37.162Z,1021.25
2016-09-28T04:49:37.187Z,1021.3
2016-09-28T04:50:37.214Z,1021.31
2016-09-28T04:51:37.231Z,1021.38
2016-09-28T04:52:37.251Z,1021.37
2016-09-28T04:53:37.274Z,1021.3
2016-09-28T04:54:37.304Z,1021.32
2016-09-28T04:55:37.319Z,1021.21
2016-09-28T04:56:37.337Z,1021.15
2016-09-28T04:57:37.371Z,1021.13
2016-09-28T04:58:37.391Z,1021.15
2016-09-28T04:59:37.411Z,1021.15
2016-09-28T05:00:37.429Z,1021.17
2016-09-28T05:01:37.449Z,1021.05
2016-09-28T05:02:37.479Z,1020.97
2016-09-28T05:03:37.497Z,1020.99
2016-09-28T05:04:37.522Z,1020.94
2016-09-28T05:05:37.559Z,1020.96
2016-09-28T05:06:37.570Z,1020.95
2016-09-28T05:07:37.591Z,1020.94
2016-09-28T05:08:37.618Z,1020.9
2016-09-28T05:09:37.630Z,1020.93
2016-09-28T05:10:37.669Z,1020.99
2016-09-28T05:11:37.681Z,1021.01
2016-09-28T05:12:37.700Z,1021.06
2016-09-28T05:13:37.723Z,1021.12
2016-09-28T05:14:37.746Z,1021.18
2016-09-28T05:15:37.768Z,1021.21
2016-09-28T05:16:37.793Z,1021.22
2016-09-28T05:17:37.812Z,1021.26
2016-09-28T05:18:37.846Z,1021.24
2016-09-28T05:19:37.858Z,1021.3
2016-09-28T05:20:37.880Z,1021.32
2016-09-28T05:21:38.006Z,1021.32
2016-09-28T05:22:37.927Z,1021.27
2016-09-28T05:23:37.997Z,1021.19
2016-09-28T05:24:37.969Z,1021.09
2016-09-28T05:25:37.999Z,1021
2016-09-28T05:26:38.013Z,1021.02
2016-09-28T05:27:38.039Z,1020.99
2016-09-28T05:28:38.070Z,1021
2016-09-28T05:29:38.090Z,1021.04
2016-09-28T05:30:38.102Z,1021.02
2016-09-28T05:31:38.129Z,1020.97
2016-09-28T05:32:38.162Z,1020.99
2016-09-28T05:33:38.179Z,1021
2016-09-28T05:34:38.299Z,1020.98
2016-09-28T05:35:38.221Z,1020.93
2016-09-28T05:36:38.249Z,1020.93
2016-09-28T05:37:38.265Z,1020.93
2016-09-28T05:38:38.289Z,1021.01
2016-09-28T05:39:38.312Z,1020.98
2016-09-28T05:40:38.329Z,1020.96
2016-09-28T05:41:38.356Z,1020.95
2016-09-28T05:42:38.382Z,1020.96
2016-09-28T05:43:38.400Z,1020.95
2016-09-28T05:44:38.440Z,1020.96
2016-09-28T05:45:38.499Z,1021
2016-09-28T05:46:38.471Z,1021.03
2016-09-28T05:47:38.588Z,1020.99
2016-09-28T05:48:38.514Z,1021.04
2016-09-28T05:49:38.539Z,1020.97
2016-09-28T05:50:38.560Z,1020.94
2016-09-28T05:51:38.578Z,1020.98
2016-09-28T05:52:38.610Z,1020.91
2016-09-28T05:53:38.628Z,1020.91
2016-09-28T05:54:38.650Z,1020.96
2016-09-28T05:55:38.668Z,1020.91
2016-09-28T05:56:38.699Z,1020.88
2016-09-28T05:57:38.719Z,1020.92
2016-09-28T05:58:38.741Z,1020.9
2016-09-28T05:59:38.758Z,1020.93
2016-09-28T06:00:38.782Z,1020.89
2016-09-28T06:01:38.810Z,1020.87
2016-09-28T06:02:38.826Z,1020.88
2016-09-28T06:03:38.849Z,1020.85
2016-09-28T06:04:38.880Z,1020.89
2016-09-28T06:05:38.897Z,1020.89
2016-09-28T06:06:38.922Z,1020.87
2016-09-28T06:07:38.955Z,1020.86
2016-09-28T06:08:38.965Z,1020.85
2016-09-28T06:09:38.984Z,1020.85
2016-09-28T06:10:39.010Z,1020.86
2016-09-28T06:11:39.036Z,1020.84
2016-09-28T06:12:39.052Z,1020.8
2016-09-28T06:13:39.079Z,1020.78
2016-09-28T06:14:39.111Z,1020.8
2016-09-28T06:15:39.130Z,1020.74
2016-09-28T06:16:39.147Z,1020.72
2016-09-28T06:17:39.167Z,1020.69
2016-09-28T06:18:39.200Z,1020.68
2016-09-28T06:19:39.220Z,1020.64
2016-09-28T06:20:39.238Z,1020.62
2016-09-28T06:21:39.264Z,1020.57
2016-09-28T06:22:39.281Z,1020.58
2016-09-28T06:23:39.311Z,1020.56
2016-09-28T06:24:39.326Z,1020.58
2016-09-28T06:25:39.359Z,1020.62
2016-09-28T06:26:39.382Z,1020.69
2016-09-28T06:27:39.401Z,1020.76
2016-09-28T06:28:39.427Z,1020.83
2016-09-28T06:29:39.451Z,1020.88
2016-09-28T06:30:39.467Z,1020.93
2016-09-28T06:31:39.501Z,1020.9
2016-09-28T06:32:39.516Z,1020.86
2016-09-28T06:33:39.541Z,1020.83
2016-09-28T06:34:39.562Z,1020.87
2016-09-28T06:35:39.591Z,1020.82
2016-09-28T06:36:39.610Z,1020.81
2016-09-28T06:37:39.632Z,1020.73
2016-09-28T06:38:39.657Z,1020.61
2016-09-28T06:39:39.679Z,1020.68
2016-09-28T06:40:39.705Z,1020.73
2016-09-28T06:41:39.731Z,1020.73
2016-09-28T06:42:39.764Z,1020.71
2016-09-28T06:43:39.775Z,1020.75
2016-09-28T06:44:39.901Z,1020.71
2016-09-28T06:45:39.824Z,1020.7
2016-09-28T06:46:39.851Z,1020.76
2016-09-28T06:47:39.868Z,1020.69
2016-09-28T06:48:39.899Z,1020.72
2016-09-28T06:49:39.917Z,1020.74
2016-09-28T06:50:39.949Z,1020.76
2016-09-28T06:51:39.968Z,1020.77
2016-09-28T06:52:40.000Z,1020.83
2016-09-28T06:53:40.031Z,1020.8
2016-09-28T06:54:40.050Z,1020.82
2016-09-28T06:55:40.075Z,1020.79
2016-09-28T06:56:40.095Z,1020.86
2016-09-28T06:57:40.121Z,1020.87
2016-09-28T06:58:40.154Z,1020.84
2016-09-28T06:59:40.169Z,1020.85
2016-09-28T07:00:40.199Z,1020.78
2016-09-28T07:01:40.221Z,1020.8
2016-09-28T07:02:40.248Z,1020.75
2016-09-28T07:03:40.270Z,1020.79
2016-09-28T07:04:40.304Z,1020.78
2016-09-28T07:05:40.316Z,1020.77
2016-09-28T07:06:40.438Z,1020.71
2016-09-28T07:07:40.370Z,1020.7
2016-09-28T07:08:40.389Z,1020.72
2016-09-28T07:09:40.412Z,1020.75
2016-09-28T07:10:40.437Z,1020.78
2016-09-28T07:11:40.467Z,1020.84
2016-09-28T07:12:40.489Z,1020.79
2016-09-28T07:13:40.514Z,1020.86
2016-09-28T07:14:40.538Z,1020.92
2016-09-28T07:15:40.563Z,1020.86
2016-09-28T07:16:40.591Z,1020.93
2016-09-28T07:17:40.659Z,1020.95
2016-09-28T07:18:40.635Z,1021.01
2016-09-28T07:19:40.665Z,1021.04
2016-09-28T07:20:40.680Z,1021.01
2016-09-28T07:21:40.718Z,1021
2016-09-28T07:22:40.734Z,1020.97
2016-09-28T07:23:40.755Z,1021.02
2016-09-28T07:24:40.788Z,1021.05
2016-09-28T07:25:40.809Z,1021.03
2016-09-28T07:26:40.833Z,1021.01
2016-09-28T07:27:40.856Z,1021.01
2016-09-28T07:28:40.881Z,1020.96
2016-09-28T07:29:40.909Z,1020.9
2016-09-28T07:30:40.930Z,1020.93
2016-09-28T07:31:40.953Z,1020.85
2016-09-28T07:32:40.981Z,1020.93
2016-09-28T07:33:41.010Z,1020.88
2016-09-28T07:34:41.034Z,1020.93
2016-09-28T07:35:41.047Z,1020.97
2016-09-28T07:36:41.075Z,1021.03
2016-09-28T07:37:41.105Z,1021
2016-09-28T07:38:41.128Z,1021.01
2016-09-28T07:39:41.148Z,1021.08
2016-09-28T07:40:41.192Z,1021.03
2016-09-28T07:41:41.201Z,1021.07
2016-09-28T07:42:41.228Z,1021.17
2016-09-28T07:43:41.251Z,1021.09
2016-09-28T07:44:41.270Z,1021.13
2016-09-28T07:45:41.293Z,1021.08
2016-09-28T07:46:41.331Z,1021.09
2016-09-28T07:47:41.352Z,1021.15
2016-09-28T07:48:41.375Z,1021.17
2016-09-28T07:49:41.408Z,1021.16
2016-09-28T07:50:41.423Z,1021.19
2016-09-28T07:51:41.445Z,1021.19
2016-09-28T07:52:41.485Z,1021.13
2016-09-28T07:53:41.497Z,1021.15
2016-09-28T07:54:41.517Z,1021.03
2016-09-28T07:55:41.542Z,1021.15
2016-09-28T07:56:41.588Z,1021.12
2016-09-28T07:57:41.591Z,1021.12
2016-09-28T07:58:41.615Z,1021.1
2016-09-28T07:59:41.647Z,1021.08
2016-09-28T08:00:41.672Z,1021.12
2016-09-28T08:01:41.772Z,1021.11
2016-09-28T08:02:41.728Z,1021.17
2016-09-28T08:03:41.749Z,1021.16
2016-09-28T08:04:41.770Z,1021.16
2016-09-28T08:05:41.792Z,1021.07
2016-09-28T08:06:41.818Z,1021.13
2016-09-28T08:07:41.855Z,1021.16
2016-09-28T08:08:41.871Z,1021.07
2016-09-28T08:09:41.900Z,1021.12
2016-09-28T08:10:41.923Z,1021.01
2016-09-28T08:11:41.946Z,1021.07
2016-09-28T08:12:41.970Z,1021.1
2016-09-28T08:13:41.997Z,1021.14
2016-09-28T08:14:42.121Z,1021.15
2016-09-28T08:15:42.042Z,1021.13
2016-09-28T08:16:42.072Z,1021.16
2016-09-28T08:17:42.091Z,1021.12
2016-09-28T08:18:42.116Z,1021.17
2016-09-28T08:19:42.157Z,1021.17
2016-09-28T08:20:42.174Z,1021.09
2016-09-28T08:21:42.197Z,1021.17
2016-09-28T08:22:42.221Z,1021.04
2016-09-28T08:23:42.249Z,1021.05
2016-09-28T08:24:42.281Z,1021.09
2016-09-28T08:25:42.314Z,1021.02
2016-09-28T08:26:42.329Z,1021.01
2016-09-28T08:27:42.341Z,1021.03
2016-09-28T08:28:42.381Z,1021.03
2016-09-28T08:29:42.391Z,1021.13
2016-09-28T08:30:42.411Z,1021.12
2016-09-28T08:31:42.440Z,1021.08
2016-09-28T08:32:42.471Z,1021.13
2016-09-28T08:33:42.493Z,1021.12
2016-09-28T08:34:42.524Z,1021.02
2016-09-28T08:35:42.544Z,1021
2016-09-28T08:36:42.580Z,1021.01
2016-09-28T08:37:42.593Z,1020.98
2016-09-28T08:38:42.616Z,1020.96
2016-09-28T08:39:42.641Z,1020.92
2016-09-28T08:40:42.667Z,1020.94
2016-09-28T08:41:42.694Z,1020.89
2016-09-28T08:42:42.721Z,1020.89
2016-09-28T08:43:42.740Z,1020.87
2016-09-28T08:44:42.767Z,1020.82
2016-09-28T08:45:42.792Z,1020.84
2016-09-28T08:46:42.821Z,1020.89
2016-09-28T08:47:42.845Z,1020.92
2016-09-28T08:48:42.859Z,1020.94
2016-09-28T08:49:42.886Z,1020.93
2016-09-28T08:50:42.914Z,1020.99
2016-09-28T08:51:42.944Z,1020.94
2016-09-28T08:52:42.971Z,1020.93
2016-09-28T08:53:42.995Z,1020.98
2016-09-28T08:54:43.009Z,1020.97
2016-09-28T08:55:43.040Z,1020.98
2016-09-28T08:56:43.072Z,1020.97
2016-09-28T08:57:43.089Z,1021.03
2016-09-28T08:58:43.118Z,1020.92
2016-09-28T08:59:43.143Z,1021.05
2016-09-28T09:00:43.172Z,1021.04
2016-09-28T09:01:43.193Z,1020.97
2016-09-28T09:02:43.214Z,1021.12
2016-09-28T09:03:43.241Z,1021.13
2016-09-28T09:04:43.267Z,1021.11
2016-09-28T09:05:43.289Z,1021.16
2016-09-28T09:06:43.321Z,1021.16
2016-09-28T09:07:43.340Z,1021.16
2016-09-28T09:08:43.370Z,1021.16
2016-09-28T09:09:43.405Z,1021.17
2016-09-28T09:10:43.421Z,1021.17
2016-09-28T09:11:43.449Z,1021.19
2016-09-28T09:12:43.477Z,1021.1
2016-09-28T09:13:43.503Z,1021.17
2016-09-28T09:14:43.523Z,1021.14
2016-09-28T09:15:43.547Z,1021.11
2016-09-28T09:16:43.574Z,1021.08
2016-09-28T09:17:43.602Z,1021.02
2016-09-28T09:19:43.651Z,1020.99
2016-09-28T09:20:43.678Z,1020.92
2016-09-28T09:21:43.709Z,1020.92
2016-09-28T09:22:43.732Z,1020.82
2016-09-28T09:23:43.750Z,1020.94
2016-09-28T09:24:43.784Z,1020.83
2016-09-28T09:25:43.809Z,1020.86
2016-09-28T09:26:43.833Z,1020.96
2016-09-28T09:27:43.853Z,1021.02
2016-09-28T09:28:43.893Z,1021.01
2016-09-28T09:29:43.997Z,1020.94
2016-09-28T09:30:43.936Z,1020.96
2016-09-28T09:31:43.968Z,1021
2016-09-28T09:32:43.983Z,1021.04
2016-09-28T09:33:44.014Z,1021.07
2016-09-28T09:34:44.034Z,1021.01
2016-09-28T09:35:44.062Z,1020.99
2016-09-28T09:36:44.093Z,1020.94
2016-09-28T09:37:44.114Z,1020.93
2016-09-28T09:38:44.142Z,1020.92
2016-09-28T09:39:44.163Z,1020.8
2016-09-28T09:40:44.284Z,1020.83
2016-09-28T09:41:44.222Z,1020.82
2016-09-28T09:42:44.249Z,1020.83
2016-09-28T09:43:44.271Z,1020.86
2016-09-28T09:44:44.291Z,1020.83
2016-09-28T09:45:44.516Z,1020.92
2016-09-28T09:46:44.345Z,1020.97
2016-09-28T09:47:44.373Z,1021.06
2016-09-28T09:48:44.399Z,1021.01
2016-09-28T09:49:44.423Z,1020.96
2016-09-28T09:50:44.451Z,1020.93
2016-09-28T09:51:44.557Z,1020.93
2016-09-28T09:52:44.501Z,1020.85
2016-09-28T09:53:44.525Z,1020.85
2016-09-28T09:54:44.545Z,1020.78
2016-09-28T09:55:44.579Z,1020.74
2016-09-28T09:56:44.611Z,1020.71
2016-09-28T09:57:44.633Z,1020.75
2016-09-28T09:58:44.651Z,1020.76
2016-09-28T09:59:44.683Z,1020.71
2016-09-28T10:00:44.712Z,1020.76
2016-09-28T10:01:44.738Z,1020.77
2016-09-28T10:02:44.762Z,1020.78
2016-09-28T10:03:44.789Z,1020.77
2016-09-28T10:04:44.810Z,1020.71
2016-09-28T10:05:44.844Z,1020.74
2016-09-28T10:06:44.873Z,1020.74
2016-09-28T10:07:44.896Z,1020.64
2016-09-28T10:08:44.923Z,1020.66
2016-09-28T10:09:44.951Z,1020.62
2016-09-28T10:10:44.972Z,1020.6
2016-09-28T10:11:44.996Z,1020.64
2016-09-28T10:12:45.031Z,1020.63
2016-09-28T10:13:45.053Z,1020.65
2016-09-28T10:14:45.082Z,1020.62
2016-09-28T10:15:45.112Z,1020.71
2016-09-28T10:16:45.133Z,1020.66
2016-09-28T10:17:45.156Z,1020.71
2016-09-28T10:18:45.182Z,1020.67
2016-09-28T10:19:45.215Z,1020.63
2016-09-28T10:20:45.236Z,1020.68
2016-09-28T10:21:45.264Z,1020.71
2016-09-28T10:22:45.292Z,1020.69
2016-09-28T10:23:45.324Z,1020.67
2016-09-28T10:24:45.359Z,1020.66
2016-09-28T10:25:45.385Z,1020.68
2016-09-28T10:26:45.397Z,1020.64
2016-09-28T10:27:45.427Z,1020.72
2016-09-28T10:28:45.453Z,1020.63
2016-09-28T10:29:45.485Z,1020.61
2016-09-28T10:30:45.518Z,1020.69
2016-09-28T10:31:45.538Z,1020.62
2016-09-28T10:32:45.559Z,1020.61
2016-09-28T10:33:45.593Z,1020.63
2016-09-28T10:34:45.619Z,1020.6
2016-09-28T10:35:45.652Z,1020.64
2016-09-28T10:36:45.671Z,1020.69
2016-09-28T10:37:45.704Z,1020.68
2016-09-28T10:38:45.734Z,1020.65
2016-09-28T10:39:45.762Z,1020.69
2016-09-28T10:40:45.780Z,1020.75
2016-09-28T10:41:45.813Z,1020.77
2016-09-28T10:42:45.843Z,1020.72
2016-09-28T10:43:45.871Z,1020.71
2016-09-28T10:44:45.982Z,1020.73
2016-09-28T10:45:45.926Z,1020.77
2016-09-28T10:46:45.959Z,1020.7
2016-09-28T10:47:45.987Z,1020.67
2016-09-28T10:48:46.006Z,1020.59
2016-09-28T10:49:46.033Z,1020.57
2016-09-28T10:50:46.073Z,1020.62
2016-09-28T10:51:46.095Z,1020.65
2016-09-28T10:52:46.124Z,1020.61
2016-09-28T10:53:46.154Z,1020.57
2016-09-28T10:54:46.173Z,1020.6
2016-09-28T10:55:46.300Z,1020.63
2016-09-28T10:56:46.240Z,1020.66
2016-09-28T10:57:46.262Z,1020.66
2016-09-28T10:58:46.289Z,1020.7
2016-09-28T10:59:46.325Z,1020.68
2016-09-28T11:00:46.352Z,1020.72
2016-09-28T11:01:46.377Z,1020.64
2016-09-28T11:02:46.405Z,1020.72
2016-09-28T11:03:46.440Z,1020.68
2016-09-28T11:04:46.464Z,1020.67
2016-09-28T11:05:46.481Z,1020.71
2016-09-28T11:06:46.517Z,1020.71
2016-09-28T11:07:46.538Z,1020.69
2016-09-28T11:08:46.574Z,1020.66
2016-09-28T11:09:46.604Z,1020.76
2016-09-28T11:10:46.631Z,1020.75
2016-09-28T11:11:46.654Z,1020.71
2016-09-28T11:12:46.682Z,1020.65
2016-09-28T11:13:46.713Z,1020.61
2016-09-28T11:14:46.744Z,1020.64
2016-09-28T11:15:46.777Z,1020.57
2016-09-28T11:16:46.800Z,1020.59
2016-09-28T11:17:46.829Z,1020.59
2016-09-28T11:18:46.856Z,1020.61
2016-09-28T11:19:46.885Z,1020.64
2016-09-28T11:20:46.915Z,1020.66
2016-09-28T11:21:46.947Z,1020.6
2016-09-28T11:22:46.969Z,1020.64
2016-09-28T11:23:47.003Z,1020.64
2016-09-28T11:24:47.033Z,1020.69
2016-09-28T11:25:47.056Z,1020.68
2016-09-28T11:26:47.085Z,1020.75
2016-09-28T11:27:47.111Z,1020.75
2016-09-28T11:28:47.142Z,1020.68
2016-09-28T11:29:47.172Z,1020.75
2016-09-28T11:30:47.211Z,1020.71
2016-09-28T11:31:47.229Z,1020.7
2016-09-28T11:32:47.259Z,1020.66
2016-09-28T11:33:47.297Z,1020.69
2016-09-28T11:34:47.319Z,1020.69
2016-09-28T11:35:47.543Z,1020.61
2016-09-28T11:36:47.572Z,1020.61
2016-09-28T11:37:47.553Z,1020.63
2016-09-28T11:38:47.583Z,1020.56
2016-09-28T11:39:47.562Z,1020.66
2016-09-28T11:40:47.590Z,1020.72
2016-09-28T11:41:47.568Z,1020.67
2016-09-28T11:42:47.600Z,1020.69
2016-09-28T11:43:47.632Z,1020.7
2016-09-28T11:44:47.654Z,1020.72
2016-09-28T11:45:47.631Z,1020.69
2016-09-28T11:46:47.667Z,1020.76
2016-09-28T11:47:47.695Z,1020.75
2016-09-28T11:48:47.718Z,1020.78
2016-09-28T11:49:47.753Z,1020.75
2016-09-28T11:50:47.771Z,1020.76
2016-09-28T11:51:47.813Z,1020.73
2016-09-28T11:52:47.834Z,1020.76
2016-09-28T11:53:47.864Z,1020.72
2016-09-28T11:54:47.893Z,1020.73
2016-09-28T11:55:47.921Z,1020.71
2016-09-28T11:56:47.950Z,1020.75
2016-09-28T11:57:47.976Z,1020.73
2016-09-28T11:58:48.006Z,1020.74
2016-09-28T11:59:48.033Z,1020.78
2016-09-28T12:00:48.064Z,1020.73
2016-09-28T12:01:48.092Z,1020.77
2016-09-28T12:02:48.116Z,1020.76
2016-09-28T12:03:48.148Z,1020.77
2016-09-28T12:04:48.182Z,1020.8
2016-09-28T12:05:48.204Z,1020.74
2016-09-28T12:06:48.251Z,1020.84
2016-09-28T12:07:48.263Z,1020.83
2016-09-28T12:08:48.288Z,1020.86
2016-09-28T12:09:48.321Z,1020.92